sensor_id;sensor_type;location;lat;lon;timestamp;temperature;humidity
6956;DHT22;50345;51.136;16.886;2023-06-24T00:00:57;19.60;99.90
6956;DHT22;50345;51.136;16.886;2023-06-24T00:03:23;19.50;99.90
6956;DHT22;50345;51.136;16.886;2023-06-24T00:05:48;19.50;99.90
6956;DHT22;50345;51.136;16.886;2023-06-24T00:08:19;19.40;99.90
6956;DHT22;50345;51.136;16.886;2023-06-24T00:10:46;19.40;99.90
6956;DHT22;50345;51.136;16.886;2023-06-24T00:13:13;19.40;99.90
6956;DHT22;50345;51.136;16.886;2023-06-24T00:15:39;19.30;99.90
6956;DHT22;50345;51.136;16.886;2023-06-24T00:18:08;19.30;99.90
6956;DHT22;50345;51.136;16.886;2023-06-24T00:20:34;19.30;99.90
6956;DHT22;50345;51.136;16.886;2023-06-24T00:25:26;19.20;99.90
6956;DHT22;50345;51.136;16.886;2023-06-24T00:27:51;19.30;99.90
6956;DHT22;50345;51.136;16.886;2023-06-24T00:30:17;19.30;99.90
6956;DHT22;50345;51.136;16.886;2023-06-24T00:32:42;19.20;99.90
6956;DHT22;50345;51.136;16.886;2023-06-24T00:35:09;19.20;99.90
6956;DHT22;50345;51.136;16.886;2023-06-24T00:37:36;19.20;99.90
6956;DHT22;50345;51.136;16.886;2023-06-24T00:40:01;19.20;99.90
6956;DHT22;50345;51.136;16.886;2023-06-24T00:42:29;19.10;99.90
6956;DHT22;50345;51.136;16.886;2023-06-24T00:44:54;19.10;99.90
6956;DHT22;50345;51.136;16.886;2023-06-24T00:47:20;19.10;99.90
6956;DHT22;50345;51.136;16.886;2023-06-24T00:49:45;19.00;99.90
6956;DHT22;50345;51.136;16.886;2023-06-24T00:52:12;19.10;99.90
6956;DHT22;50345;51.136;16.886;2023-06-24T00:54:42;19.00;99.90
6956;DHT22;50345;51.136;16.886;2023-06-24T00:57:08;19.00;99.90
6956;DHT22;50345;51.136;16.886;2023-06-24T00:59:34;19.00;99.90
6956;DHT22;50345;51.136;16.886;2023-06-24T01:02:01;19.00;99.90
6956;DHT22;50345;51.136;16.886;2023-06-24T01:04:27;19.00;99.90
6956;DHT22;50345;51.136;16.886;2023-06-24T01:06:53;19.00;99.90
6956;DHT22;50345;51.136;16.886;2023-06-24T01:09:20;19.00;99.90
6956;DHT22;50345;51.136;16.886;2023-06-24T01:11:46;18.90;99.90
6956;DHT22;50345;51.136;16.886;2023-06-24T01:14:12;18.90;99.90
6956;DHT22;50345;51.136;16.886;2023-06-24T01:24:50;18.40;99.90
6956;DHT22;50345;51.136;16.886;2023-06-24T01:27:45;18.30;99.90
6956;DHT22;50345;51.136;16.886;2023-06-24T01:30:29;18.20;99.90
6956;DHT22;50345;51.136;16.886;2023-06-24T01:33:03;18.20;99.90
6956;DHT22;50345;51.136;16.886;2023-06-24T01:35:32;18.10;99.90
6956;DHT22;50345;51.136;16.886;2023-06-24T02:19:48;17.30;99.90
6956;DHT22;50345;51.136;16.886;2023-06-24T02:22:15;17.20;99.90
6956;DHT22;50345;51.136;16.886;2023-06-24T02:24:42;17.20;99.90
6956;DHT22;50345;51.136;16.886;2023-06-24T02:27:08;17.20;99.90
6956;DHT22;50345;51.136;16.886;2023-06-24T02:29:35;17.20;99.90
6956;DHT22;50345;51.136;16.886;2023-06-24T02:32:01;17.10;99.90
6956;DHT22;50345;51.136;16.886;2023-06-24T02:34:27;17.10;99.90
6956;DHT22;50345;51.136;16.886;2023-06-24T02:39:20;17.00;99.90
6956;DHT22;50345;51.136;16.886;2023-06-24T02:41:45;16.90;99.90
6956;DHT22;50345;51.136;16.886;2023-06-24T02:49:05;16.80;99.90
6956;DHT22;50345;51.136;16.886;2023-06-24T02:53:58;16.70;99.90
6956;DHT22;50345;51.136;16.886;2023-06-24T02:56:25;16.70;99.90
6956;DHT22;50345;51.136;16.886;2023-06-24T02:58:52;16.70;99.90
6956;DHT22;50345;51.136;16.886;2023-06-24T03:01:19;16.70;99.90
6956;DHT22;50345;51.136;16.886;2023-06-24T03:03:53;16.70;99.90
6956;DHT22;50345;51.136;16.886;2023-06-24T03:06:19;16.70;99.90
6956;DHT22;50345;51.136;16.886;2023-06-24T03:08:48;16.70;99.90
6956;DHT22;50345;51.136;16.886;2023-06-24T03:11:14;16.70;99.90
6956;DHT22;50345;51.136;16.886;2023-06-24T03:13:41;16.70;99.90
6956;DHT22;50345;51.136;16.886;2023-06-24T03:16:06;16.70;99.90
6956;DHT22;50345;51.136;16.886;2023-06-24T03:18:39;16.70;99.90
6956;DHT22;50345;51.136;16.886;2023-06-24T03:21:04;16.70;99.90
6956;DHT22;50345;51.136;16.886;2023-06-24T03:23:31;16.70;99.90
6956;DHT22;50345;51.136;16.886;2023-06-24T03:25:57;16.70;99.90
6956;DHT22;50345;51.136;16.886;2023-06-24T03:28:22;16.70;99.90
6956;DHT22;50345;51.136;16.886;2023-06-24T03:30:48;16.70;99.90
6956;DHT22;50345;51.136;16.886;2023-06-24T03:33:13;16.70;99.90
6956;DHT22;50345;51.136;16.886;2023-06-24T03:35:42;16.70;99.90
6956;DHT22;50345;51.136;16.886;2023-06-24T03:38:08;16.60;99.90
6956;DHT22;50345;51.136;16.886;2023-06-24T03:40:34;16.70;99.90
6956;DHT22;50345;51.136;16.886;2023-06-24T03:42:59;16.70;99.90
6956;DHT22;50345;51.136;16.886;2023-06-24T03:45:25;16.70;99.90
6956;DHT22;50345;51.136;16.886;2023-06-24T03:47:50;16.70;99.90
6956;DHT22;50345;51.136;16.886;2023-06-24T03:50:16;16.70;99.90
6956;DHT22;50345;51.136;16.886;2023-06-24T03:52:42;16.70;99.90
6956;DHT22;50345;51.136;16.886;2023-06-24T03:55:09;16.70;99.90
6956;DHT22;50345;51.136;16.886;2023-06-24T03:57:35;16.60;99.90
6956;DHT22;50345;51.136;16.886;2023-06-24T04:00:00;16.60;99.90
6956;DHT22;50345;51.136;16.886;2023-06-24T04:02:26;16.60;99.90
6956;DHT22;50345;51.136;16.886;2023-06-24T04:04:52;16.60;99.90
6956;DHT22;50345;51.136;16.886;2023-06-24T04:07:18;16.60;99.90
6956;DHT22;50345;51.136;16.886;2023-06-24T04:09:55;16.60;99.90
6956;DHT22;50345;51.136;16.886;2023-06-24T04:12:22;16.60;99.90
6956;DHT22;50345;51.136;16.886;2023-06-24T04:14:47;16.60;99.90
6956;DHT22;50345;51.136;16.886;2023-06-24T04:17:13;16.60;99.90
6956;DHT22;50345;51.136;16.886;2023-06-24T04:19:38;16.60;99.90
6956;DHT22;50345;51.136;16.886;2023-06-24T04:22:05;16.60;99.90
6956;DHT22;50345;51.136;16.886;2023-06-24T04:24:30;16.60;99.90
6956;DHT22;50345;51.136;16.886;2023-06-24T04:26:57;16.60;99.90
6956;DHT22;50345;51.136;16.886;2023-06-24T04:29:22;16.60;99.90
6956;DHT22;50345;51.136;16.886;2023-06-24T04:31:48;16.50;99.90
6956;DHT22;50345;51.136;16.886;2023-06-24T04:36:40;16.40;99.90
6956;DHT22;50345;51.136;16.886;2023-06-24T04:39:05;16.40;99.90
6956;DHT22;50345;51.136;16.886;2023-06-24T04:41:31;16.40;99.90
6956;DHT22;50345;51.136;16.886;2023-06-24T04:43:57;16.40;99.90
6956;DHT22;50345;51.136;16.886;2023-06-24T04:46:23;16.40;99.90
6956;DHT22;50345;51.136;16.886;2023-06-24T04:48:49;16.30;99.90
6956;DHT22;50345;51.136;16.886;2023-06-24T04:51:14;16.30;99.90
6956;DHT22;50345;51.136;16.886;2023-06-24T04:53:40;16.30;99.90
6956;DHT22;50345;51.136;16.886;2023-06-24T04:56:06;16.30;99.90
6956;DHT22;50345;51.136;16.886;2023-06-24T04:58:32;16.40;99.90
6956;DHT22;50345;51.136;16.886;2023-06-24T05:00:57;16.40;99.90
6956;DHT22;50345;51.136;16.886;2023-06-24T05:03:24;16.40;99.90
6956;DHT22;50345;51.136;16.886;2023-06-24T05:05:50;16.40;99.90
6956;DHT22;50345;51.136;16.886;2023-06-24T05:08:15;16.40;99.90
6956;DHT22;50345;51.136;16.886;2023-06-24T05:10:41;16.50;99.90
6956;DHT22;50345;51.136;16.886;2023-06-24T05:13:06;16.50;99.90
6956;DHT22;50345;51.136;16.886;2023-06-24T05:15:32;16.50;99.90
6956;DHT22;50345;51.136;16.886;2023-06-24T05:17:58;16.50;99.90
6956;DHT22;50345;51.136;16.886;2023-06-24T05:20:23;16.50;99.90
6956;DHT22;50345;51.136;16.886;2023-06-24T05:22:49;16.60;99.90
6956;DHT22;50345;51.136;16.886;2023-06-24T05:25:14;16.60;99.90
6956;DHT22;50345;51.136;16.886;2023-06-24T05:27:40;16.60;99.90
6956;DHT22;50345;51.136;16.886;2023-06-24T05:30:07;16.50;99.90
6956;DHT22;50345;51.136;16.886;2023-06-24T05:32:33;16.60;99.90
6956;DHT22;50345;51.136;16.886;2023-06-24T05:34:59;16.60;99.90
6956;DHT22;50345;51.136;16.886;2023-06-24T05:37:24;16.60;99.90
6956;DHT22;50345;51.136;16.886;2023-06-24T05:39:50;16.60;99.90
6956;DHT22;50345;51.136;16.886;2023-06-24T05:42:15;16.60;99.90
6956;DHT22;50345;51.136;16.886;2023-06-24T05:44:42;16.70;99.90
6956;DHT22;50345;51.136;16.886;2023-06-24T05:47:07;16.70;99.90
6956;DHT22;50345;51.136;16.886;2023-06-24T05:49:33;16.80;99.90
6956;DHT22;50345;51.136;16.886;2023-06-24T05:51:58;16.90;99.90
6956;DHT22;50345;51.136;16.886;2023-06-24T05:54:24;17.00;99.90
6956;DHT22;50345;51.136;16.886;2023-06-24T05:56:50;17.10;99.90
6956;DHT22;50345;51.136;16.886;2023-06-24T05:59:15;17.10;99.90
6956;DHT22;50345;51.136;16.886;2023-06-24T06:01:41;17.20;99.90
6956;DHT22;50345;51.136;16.886;2023-06-24T06:04:06;17.20;99.90
6956;DHT22;50345;51.136;16.886;2023-06-24T06:08:59;17.40;99.90
6956;DHT22;50345;51.136;16.886;2023-06-24T06:11:24;17.60;99.90
6956;DHT22;50345;51.136;16.886;2023-06-24T12:30:58;36.30;45.80
6956;DHT22;50345;51.136;16.886;2023-06-24T12:38:16;35.20;48.40
6956;DHT22;50345;51.136;16.886;2023-06-24T12:40:42;34.70;52.10
6956;DHT22;50345;51.136;16.886;2023-06-24T12:50:28;34.70;55.10
6956;DHT22;50345;51.136;16.886;2023-06-24T12:52:53;35.10;52.00
6956;DHT22;50345;51.136;16.886;2023-06-24T12:55:19;35.70;49.50
6956;DHT22;50345;51.136;16.886;2023-06-24T12:57:44;36.20;48.10
6956;DHT22;50345;51.136;16.886;2023-06-24T13:00:10;36.30;47.40
6956;DHT22;50345;51.136;16.886;2023-06-24T13:05:04;37.50;45.90
6956;DHT22;50345;51.136;16.886;2023-06-24T13:17:14;39.00;43.70
6956;DHT22;50345;51.136;16.886;2023-06-24T13:19:39;39.30;44.30
6956;DHT22;50345;51.136;16.886;2023-06-24T13:22:05;40.10;41.80
6956;DHT22;50345;51.136;16.886;2023-06-24T13:24:30;40.50;39.20
6956;DHT22;50345;51.136;16.886;2023-06-24T13:26:56;39.60;38.20
6956;DHT22;50345;51.136;16.886;2023-06-24T13:29:22;39.20;40.50
6956;DHT22;50345;51.136;16.886;2023-06-24T13:34:13;40.20;39.10
6956;DHT22;50345;51.136;16.886;2023-06-24T13:39:07;41.70;37.80
6956;DHT22;50345;51.136;16.886;2023-06-24T13:53:49;44.10;32.40
6956;DHT22;50345;51.136;16.886;2023-06-24T14:54:49;42.10;32.70
6956;DHT22;50345;51.136;16.886;2023-06-24T14:59:43;42.30;31.70
6956;DHT22;50345;51.136;16.886;2023-06-24T15:14:20;42.10;30.70
6956;DHT22;50345;51.136;16.886;2023-06-24T15:16:46;42.40;30.80
6956;DHT22;50345;51.136;16.886;2023-06-24T15:19:11;42.90;30.90
6956;DHT22;50345;51.136;16.886;2023-06-24T15:21:37;43.00;30.30
6956;DHT22;50345;51.136;16.886;2023-06-24T15:43:31;41.10;31.40
6956;DHT22;50345;51.136;16.886;2023-06-24T15:48:23;42.20;30.00
6956;DHT22;50345;51.136;16.886;2023-06-24T15:50:48;43.00;30.50
6956;DHT22;50345;51.136;16.886;2023-06-24T15:53:14;43.80;29.80
6956;DHT22;50345;51.136;16.886;2023-06-24T15:55:40;44.30;28.70
6956;DHT22;50345;51.136;16.886;2023-06-24T16:15:08;39.10;34.30
6956;DHT22;50345;51.136;16.886;2023-06-24T16:17:33;39.20;34.00
6956;DHT22;50345;51.136;16.886;2023-06-24T16:39:27;30.70;47.50
6956;DHT22;50345;51.136;16.886;2023-06-24T16:41:53;30.40;52.80
6956;DHT22;50345;51.136;16.886;2023-06-24T17:28:12;27.40;54.40
6956;DHT22;50345;51.136;16.886;2023-06-24T17:30:37;27.20;55.40
6956;DHT22;50345;51.136;16.886;2023-06-24T17:33:03;27.10;56.00
6956;DHT22;50345;51.136;16.886;2023-06-24T17:35:29;26.90;56.30
6956;DHT22;50345;51.136;16.886;2023-06-24T17:37:54;26.80;56.50
6956;DHT22;50345;51.136;16.886;2023-06-24T17:40:20;26.70;56.60
6956;DHT22;50345;51.136;16.886;2023-06-24T17:42:46;26.70;56.90
6956;DHT22;50345;51.136;16.886;2023-06-24T17:45:11;26.60;56.90
